createdAt,value
2022-10-17T00:01:56.296Z,97952.28
2022-10-17T00:04:22.743Z,97952.44
2022-10-17T00:06:49.119Z,97949.94
2022-10-17T00:09:15.511Z,97951.09
2022-10-17T00:11:41.945Z,97956.66
2022-10-17T00:14:08.349Z,97949.09
2022-10-17T00:16:37.229Z,97951.03
2022-10-17T00:19:04.464Z,97952.56
2022-10-17T00:21:30.852Z,97959.47
2022-10-17T00:23:57.297Z,97956.56
2022-10-17T00:26:23.667Z,97961.06
2022-10-17T00:28:50.821Z,97958.44
2022-10-17T00:31:18.154Z,97951.34
2022-10-17T00:33:44.631Z,97957.63
2022-10-17T00:36:15.464Z,97965.09
2022-10-17T00:38:42.985Z,97963.81
2022-10-17T00:41:10.570Z,97965.72
2022-10-17T00:43:55.872Z,97964.75
2022-10-17T00:46:23.746Z,97958.78
2022-10-17T00:48:52.604Z,97956.91
2022-10-17T00:51:20.801Z,97956.78
2022-10-17T00:53:47.246Z,97958.28
2022-10-17T00:56:13.836Z,97960.34
2022-10-17T00:58:40.291Z,97962.03
2022-10-17T01:01:06.679Z,97962.75
2022-10-17T01:03:33.101Z,97962.03
2022-10-17T01:05:59.758Z,97962.22
2022-10-17T01:08:26.079Z,97967.28
2022-10-17T01:11:03.648Z,97971.78
2022-10-17T01:13:42.471Z,97962.38
2022-10-17T01:16:11.696Z,97971.34
2022-10-17T01:18:40.844Z,97966.97
2022-10-17T01:21:16.505Z,97966.53
2022-10-17T01:23:42.808Z,97964.75
2022-10-17T01:26:12.222Z,97971.75
2022-10-17T01:28:57.421Z,97971.22
2022-10-17T01:31:25.551Z,97978.66
2022-10-17T01:34:24.486Z,97982.63
2022-10-17T01:36:52.804Z,97970.28
2022-10-17T01:39:22.236Z,97968.50
2022-10-17T01:42:07.287Z,97964.66
2022-10-17T01:44:38.669Z,97962.38
2022-10-17T01:47:10.782Z,97971.56
2022-10-17T01:49:38.725Z,97965.81
2022-10-17T01:52:10.041Z,97973.03
2022-10-17T01:54:48.236Z,97964.84
2022-10-17T01:57:19.545Z,97963.84
2022-10-17T01:59:48.600Z,97968.00
2022-10-17T02:02:16.744Z,97970.72
2022-10-17T02:04:43.472Z,97973.44
2022-10-17T02:07:10.727Z,97974.69
2022-10-17T02:09:37.135Z,97975.94
2022-10-17T02:12:24.777Z,97972.72
2022-10-17T02:14:54.196Z,97965.50
2022-10-17T02:17:26.911Z,97972.41
2022-10-17T02:20:10.277Z,97970.31
2022-10-17T02:22:41.854Z,97972.41
2022-10-17T02:25:23.520Z,97971.03
2022-10-17T02:27:56.218Z,97975.53
2022-10-17T02:30:40.978Z,97973.34
2022-10-17T02:33:07.327Z,97976.69
2022-10-17T02:35:36.169Z,97969.91
2022-10-17T02:38:03.979Z,97973.66
2022-10-17T02:40:31.240Z,97968.66
2022-10-17T02:42:58.801Z,97970.31
2022-10-17T02:45:26.461Z,97971.13
2022-10-17T02:47:59.579Z,97973.97
2022-10-17T02:50:30.633Z,97972.28
2022-10-17T02:52:59.501Z,97968.53
2022-10-17T02:55:30.026Z,97971.03
2022-10-17T02:58:00.281Z,97971.78
2022-10-17T03:00:27.758Z,97970.09
2022-10-17T03:02:54.553Z,97971.53
2022-10-17T03:05:22.531Z,97963.91
2022-10-17T03:07:48.999Z,97981.41
2022-10-17T03:10:15.560Z,97978.78
2022-10-17T03:12:41.932Z,97983.56
2022-10-17T03:15:08.696Z,97978.16
2022-10-17T03:17:35.652Z,97986.63
2022-10-17T03:20:07.388Z,97988.94
2022-10-17T03:22:33.813Z,97985.78
2022-10-17T03:25:00.166Z,97984.94
2022-10-17T03:27:29.052Z,97994.34
2022-10-17T03:29:55.618Z,97992.06
2022-10-17T03:32:22.004Z,97991.63
2022-10-17T03:34:48.376Z,97995.00
2022-10-17T03:37:14.812Z,98005.22
2022-10-17T03:39:41.125Z,98003.03
2022-10-17T03:42:07.449Z,97998.00
2022-10-17T03:44:33.847Z,97999.81
2022-10-17T03:47:00.544Z,98001.47
2022-10-17T03:49:26.949Z,98003.16
2022-10-17T03:51:53.265Z,97997.38
2022-10-17T03:54:19.612Z,97996.22
2022-10-17T03:56:48.455Z,97995.41
2022-10-17T03:59:15.360Z,98001.88
2022-10-17T04:01:42.170Z,97991.09
2022-10-17T04:04:08.957Z,97988.06
2022-10-17T04:06:35.498Z,97991.50
2022-10-17T04:09:01.993Z,97992.75
2022-10-17T04:11:28.380Z,97988.44
2022-10-17T04:13:55.661Z,97992.13
2022-10-17T04:16:22.279Z,97996.09
2022-10-17T04:18:52.620Z,98001.88
2022-10-17T04:21:19.332Z,97998.09
2022-10-17T04:23:45.678Z,97996.84
2022-10-17T04:26:12.006Z,97997.56
2022-10-17T04:31:07.157Z,97999.44
2022-10-17T04:33:34.229Z,97995.56
2022-10-17T04:36:05.327Z,98000.72
2022-10-17T04:38:31.783Z,97999.88
2022-10-17T04:41:00.050Z,97995.88
2022-10-17T04:43:26.379Z,97991.44
2022-10-17T04:45:52.727Z,97988.38
2022-10-17T04:48:19.153Z,97991.38
2022-10-17T04:50:59.234Z,97994.41
2022-10-17T04:53:26.887Z,97996.09
2022-10-17T04:55:53.559Z,97989.78
2022-10-17T04:58:20.257Z,97999.78
2022-10-17T05:00:46.677Z,98000.25
2022-10-17T05:03:13.083Z,98000.03
2022-10-17T05:05:40.063Z,97998.47
2022-10-17T05:08:07.584Z,97991.44
2022-10-17T05:10:37.876Z,97988.81
2022-10-17T05:13:04.983Z,97997.75
2022-10-17T05:15:33.709Z,97997.75
2022-10-17T05:18:00.136Z,98000.38
2022-10-17T05:20:26.699Z,97999.63
2022-10-17T05:22:53.336Z,98003.59
2022-10-17T05:25:20.157Z,98006.34
2022-10-17T05:27:46.601Z,98002.97
2022-10-17T05:30:13.042Z,98007.78
2022-10-17T05:32:39.470Z,98012.91
2022-10-17T05:35:06.118Z,98009.53
2022-10-17T05:37:32.499Z,98012.97
2022-10-17T05:39:58.870Z,98018.16
2022-10-17T05:42:25.280Z,98022.53
2022-10-17T05:44:51.702Z,98022.03
2022-10-17T05:47:18.043Z,98022.78
2022-10-17T05:49:48.626Z,98028.97
2022-10-17T05:52:18.531Z,98026.03
2022-10-17T05:54:44.968Z,98023.06
2022-10-17T05:57:11.528Z,98026.16
2022-10-17T05:59:38.015Z,98034.03
2022-10-17T06:02:06.828Z,98034.47
2022-10-17T06:04:33.408Z,98043.19
2022-10-17T06:06:59.758Z,98050.19
2022-10-17T06:09:26.300Z,98049.03
2022-10-17T06:11:52.678Z,98058.22
2022-10-17T06:14:19.016Z,98068.16
2022-10-17T06:16:45.463Z,98067.13
2022-10-17T06:19:11.823Z,98067.66
2022-10-17T06:21:41.094Z,98070.13
2022-10-17T06:24:07.451Z,98070.28
2022-10-17T06:26:33.778Z,98065.75
2022-10-17T06:29:00.260Z,98067.34
2022-10-17T06:31:26.836Z,98072.44
2022-10-17T06:33:55.612Z,98083.91
2022-10-17T06:36:21.960Z,98085.06
2022-10-17T06:38:48.324Z,98086.00
2022-10-17T06:41:19.238Z,98086.50
2022-10-17T06:43:48.651Z,98092.19
2022-10-17T06:46:15.955Z,98100.78
2022-10-17T06:48:42.676Z,98103.22
2022-10-17T06:51:12.535Z,98109.56
2022-10-17T06:53:40.028Z,98103.22
2022-10-17T06:56:07.218Z,98118.31
2022-10-17T06:58:35.431Z,98118.56
2022-10-17T07:01:03.103Z,98112.66
2022-10-17T07:03:29.795Z,98119.06
2022-10-17T07:05:56.767Z,98116.44
2022-10-17T07:08:23.434Z,98120.00
2022-10-17T07:10:52.465Z,98127.31
2022-10-17T07:13:19.125Z,98120.81
2022-10-17T07:15:45.744Z,98118.22
2022-10-17T07:18:12.508Z,98118.13
2022-10-17T07:20:38.889Z,98123.56
2022-10-17T07:23:05.255Z,98127.34
2022-10-17T07:25:33.280Z,98135.00
2022-10-17T07:28:02.195Z,98137.09
2022-10-17T07:30:28.552Z,98137.72
2022-10-17T07:32:55.079Z,98139.06
2022-10-17T07:35:21.656Z,98140.66
2022-10-17T07:37:48.003Z,98144.22
2022-10-17T07:40:14.958Z,98139.28
2022-10-17T07:42:41.364Z,98131.22
2022-10-17T07:45:08.008Z,98138.75
2022-10-17T07:47:36.530Z,98147.09
2022-10-17T07:50:04.359Z,98149.41
2022-10-17T07:52:31.103Z,98142.56
2022-10-17T07:54:57.864Z,98143.09
2022-10-17T07:57:24.277Z,98152.84
2022-10-17T07:59:51.342Z,98145.97
2022-10-17T08:02:23.032Z,98147.91
2022-10-17T08:04:49.648Z,98152.75
2022-10-17T08:07:22.152Z,98154.19
2022-10-17T08:09:50.784Z,98151.69
2022-10-17T08:12:17.295Z,98154.47
2022-10-17T08:14:45.781Z,98146.47
2022-10-17T08:17:12.239Z,98160.88
2022-10-17T08:19:40.256Z,98162.09
2022-10-17T08:22:07.083Z,98166.97
2022-10-17T08:24:33.619Z,98166.50
2022-10-17T08:27:00.684Z,98155.63
2022-10-17T08:29:27.042Z,98156.13
2022-10-17T08:31:58.510Z,98152.19
2022-10-17T08:34:27.982Z,98157.94
2022-10-17T08:36:54.417Z,98156.03
2022-10-17T08:39:20.825Z,98159.50
2022-10-17T08:41:47.396Z,98165.00
2022-10-17T08:44:16.805Z,98164.63
2022-10-17T08:46:45.315Z,98164.88
2022-10-17T08:49:15.432Z,98172.41
2022-10-17T08:51:49.509Z,98163.56
2022-10-17T08:54:22.526Z,98167.78
2022-10-17T08:56:50.062Z,98172.31
2022-10-17T08:59:29.523Z,98172.22
2022-10-17T09:01:58.704Z,98171.03
2022-10-17T09:07:10.151Z,98166.59
2022-10-17T09:09:39.593Z,98165.50
2022-10-17T09:12:20.126Z,98174.09
2022-10-17T09:15:00.743Z,98170.38
2022-10-17T09:17:49.790Z,98174.41
2022-10-17T09:20:18.656Z,98186.19
2022-10-17T09:22:49.153Z,98186.22
2022-10-17T09:25:19.730Z,98191.66
2022-10-17T09:27:51.566Z,98180.69
2022-10-17T09:30:45.465Z,98180.38
2022-10-17T09:33:23.251Z,98178.09
2022-10-17T09:36:03.128Z,98182.78
2022-10-17T09:38:41.105Z,98183.03
2022-10-17T09:41:39.174Z,98184.16
2022-10-17T09:44:11.250Z,98174.13
2022-10-17T09:46:38.531Z,98174.50
2022-10-17T09:49:12.320Z,98178.81
2022-10-17T09:51:41.274Z,98177.59
2022-10-17T09:54:15.533Z,98175.41
2022-10-17T09:57:01.800Z,98182.84
2022-10-17T09:59:32.300Z,98178.59
2022-10-17T10:02:24.822Z,98191.78
2022-10-17T10:05:06.271Z,98201.47
2022-10-17T10:07:35.259Z,98194.47
2022-10-17T10:10:04.161Z,98202.63
2022-10-17T10:12:32.692Z,98202.09
2022-10-17T10:14:59.598Z,98188.31
2022-10-17T10:17:33.939Z,98202.91
2022-10-17T10:20:00.427Z,98192.78
2022-10-17T10:22:27.458Z,98198.06
2022-10-17T10:25:26.514Z,98194.00
2022-10-17T10:27:52.908Z,98201.75
2022-10-17T10:30:21.438Z,98195.59
2022-10-17T10:32:49.171Z,98193.66
2022-10-17T10:35:23.612Z,98198.69
2022-10-17T10:37:52.007Z,98194.53
2022-10-17T10:40:20.068Z,98186.06
2022-10-17T10:42:51.218Z,98183.72
2022-10-17T10:48:23.837Z,98187.06
2022-10-17T10:50:52.808Z,98173.75
2022-10-17T10:53:35.545Z,98178.72
2022-10-17T10:56:12.300Z,98181.94
2022-10-17T10:58:51.049Z,98169.88
2022-10-17T11:01:21.251Z,98166.53
2022-10-17T11:04:06.002Z,98170.13
2022-10-17T11:06:36.603Z,98177.78
2022-10-17T11:09:25.695Z,98164.19
2022-10-17T11:12:01.144Z,98176.25
2022-10-17T11:14:34.247Z,98174.69
2022-10-17T11:17:24.377Z,98175.94
2022-10-17T11:20:04.621Z,98179.69
2022-10-17T11:22:32.380Z,98178.19
2022-10-17T11:25:25.413Z,98180.69
2022-10-17T11:27:51.756Z,98185.41
2022-10-17T11:30:18.156Z,98182.31
2022-10-17T11:32:46.773Z,98182.31
2022-10-17T11:35:13.535Z,98187.00
2022-10-17T11:37:42.393Z,98184.75
2022-10-17T11:40:20.417Z,98177.88
2022-10-17T11:43:05.242Z,98165.47
2022-10-17T11:45:36.526Z,98176.28
2022-10-17T11:48:28.457Z,98172.16
2022-10-17T11:54:09.344Z,98182.41
2022-10-17T11:56:44.369Z,98177.94
2022-10-17T11:59:25.967Z,98180.00
2022-10-17T12:02:00.886Z,98170.91
2022-10-17T12:04:39.585Z,98169.72
2022-10-17T12:07:20.807Z,98173.38
2022-10-17T12:09:59.343Z,98168.59
2022-10-17T12:12:27.519Z,98181.75
2022-10-17T12:14:54.053Z,98172.66
2022-10-17T12:17:23.281Z,98170.63
2022-10-17T12:19:49.577Z,98168.22
2022-10-17T12:22:28.841Z,98160.66
2022-10-17T12:24:59.811Z,98170.28
2022-10-17T12:27:35.866Z,98172.44
2022-10-17T12:30:05.519Z,98165.19
2022-10-17T12:32:46.835Z,98167.72
2022-10-17T12:35:22.356Z,98159.56
2022-10-17T12:37:48.696Z,98161.56
2022-10-17T12:40:33.993Z,98163.69
2022-10-17T12:43:03.188Z,98166.50
2022-10-17T12:45:48.342Z,98157.56
2022-10-17T12:48:34.913Z,98162.88
2022-10-17T12:51:17.728Z,98163.22
2022-10-17T12:54:01.808Z,98161.22
2022-10-17T12:56:31.224Z,98160.25
2022-10-17T12:58:58.580Z,98146.28
2022-10-17T13:01:27.797Z,98153.38
2022-10-17T13:03:55.031Z,98152.25
2022-10-17T13:06:29.546Z,98149.72
2022-10-17T13:09:03.247Z,98150.34
2022-10-17T13:11:32.115Z,98149.19
2022-10-17T13:14:00.650Z,98147.50
2022-10-17T13:16:37.603Z,98146.41
2022-10-17T13:19:11.820Z,98145.53
2022-10-17T13:21:38.183Z,98138.91
2022-10-17T13:24:39.932Z,98138.75
2022-10-17T13:27:20.853Z,98140.75
2022-10-17T13:29:47.228Z,98149.09
2022-10-17T13:32:13.834Z,98139.28
2022-10-17T13:34:40.150Z,98138.31
2022-10-17T13:37:08.337Z,98146.94
2022-10-17T13:39:54.413Z,98139.13
2022-10-17T13:42:32.125Z,98148.44
2022-10-17T13:45:01.506Z,98157.38
2022-10-17T13:47:29.554Z,98144.59
2022-10-17T13:49:56.871Z,98147.41
2022-10-17T13:52:28.501Z,98146.91
2022-10-17T13:54:56.003Z,98146.75
2022-10-17T13:57:30.499Z,98149.88
2022-10-17T13:59:58.400Z,98146.34
2022-10-17T14:02:26.786Z,98138.22
2022-10-17T14:05:24.970Z,98141.22
2022-10-17T14:08:10.750Z,98141.75
2022-10-17T14:10:39.343Z,98142.41
2022-10-17T14:13:08.162Z,98141.09
2022-10-17T14:15:35.565Z,98144.75
2022-10-17T14:18:09.149Z,98144.25
2022-10-17T14:21:28.757Z,98144.69
2022-10-17T14:23:39.401Z,98151.84
2022-10-17T14:26:05.884Z,98146.03
2022-10-17T14:28:32.379Z,98147.84
2022-10-17T14:31:10.844Z,98148.69
2022-10-17T14:33:41.463Z,98150.81
2022-10-17T14:36:09.707Z,98148.53
2022-10-17T14:38:36.370Z,98148.34
2022-10-17T14:43:54.531Z,98141.88
2022-10-17T14:46:21.034Z,98146.03
2022-10-17T14:48:51.610Z,98148.84
2022-10-17T14:51:18.641Z,98160.09
2022-10-17T14:54:02.938Z,98157.28
2022-10-17T14:56:36.692Z,98160.56
2022-10-17T14:59:07.530Z,98156.59
2022-10-17T15:01:37.506Z,98158.78
2022-10-17T15:04:10.621Z,98162.25
2022-10-17T15:06:37.072Z,98160.91
2022-10-17T15:09:04.533Z,98161.53
2022-10-17T15:11:30.858Z,98155.41
2022-10-17T15:13:57.213Z,98158.53
2022-10-17T15:16:30.427Z,98163.50
2022-10-17T15:18:56.804Z,98158.03
2022-10-17T15:21:39.255Z,98158.53
2022-10-17T15:24:08.374Z,98160.34
2022-10-17T15:26:34.876Z,98167.00
2022-10-17T15:29:01.362Z,98166.91
2022-10-17T15:31:29.064Z,98166.47
2022-10-17T15:33:55.387Z,98171.16
2022-10-17T15:36:28.750Z,98173.81
2022-10-17T15:38:59.668Z,98162.72
2022-10-17T15:41:27.135Z,98165.56
2022-10-17T15:43:53.625Z,98164.34
2022-10-17T15:46:22.649Z,98166.63
2022-10-17T15:48:49.381Z,98163.72
2022-10-17T15:51:16.218Z,98171.91
2022-10-17T15:53:42.901Z,98172.31
2022-10-17T15:56:18.646Z,98168.13
2022-10-17T15:58:45.413Z,98174.00
2022-10-17T16:01:18.616Z,98174.56
2022-10-17T16:03:47.253Z,98176.28
2022-10-17T16:06:14.288Z,98182.31
2022-10-17T16:08:40.735Z,98190.25
2022-10-17T16:11:10.040Z,98192.44
2022-10-17T16:13:36.465Z,98191.44
2022-10-17T16:16:02.778Z,98192.16
2022-10-17T16:18:29.114Z,98195.63
2022-10-17T16:20:55.424Z,98201.78
2022-10-17T16:23:21.793Z,98190.84
2022-10-17T16:25:48.134Z,98196.53
2022-10-17T16:28:14.452Z,98194.63
2022-10-17T16:30:42.566Z,98200.72
2022-10-17T16:33:10.410Z,98200.00
2022-10-17T16:35:37.847Z,98202.09
2022-10-17T16:38:05.338Z,98200.13
2022-10-17T16:40:31.656Z,98211.94
2022-10-17T16:42:58.062Z,98219.56
2022-10-17T16:45:24.462Z,98218.00
2022-10-17T16:47:50.861Z,98225.59
2022-10-17T16:50:17.347Z,98219.22
2022-10-17T16:52:43.666Z,98227.88
2022-10-17T16:55:10.371Z,98226.59
2022-10-17T16:57:36.849Z,98218.28
2022-10-17T17:00:04.657Z,98222.13
2022-10-17T17:02:31.340Z,98217.53
2022-10-17T17:04:57.831Z,98226.09
2022-10-17T17:07:24.641Z,98223.72
2022-10-17T17:09:51.534Z,98227.56
2022-10-17T17:12:17.903Z,98232.91
2022-10-17T17:14:44.424Z,98237.22
2022-10-17T17:17:19.430Z,98236.81
2022-10-17T17:19:56.962Z,98233.59
2022-10-17T17:22:23.318Z,98229.28
2022-10-17T17:27:21.578Z,98228.84
2022-10-17T17:29:47.890Z,98226.22
2022-10-17T17:32:14.687Z,98230.22
2022-10-17T17:34:40.994Z,98231.66
2022-10-17T17:37:07.497Z,98235.84
2022-10-17T17:39:34.182Z,98240.00
2022-10-17T17:42:03.064Z,98244.31
2022-10-17T17:44:29.434Z,98235.88
2022-10-17T17:46:55.846Z,98252.25
2022-10-17T17:49:22.243Z,98243.41
2022-10-17T17:51:48.608Z,98243.16
2022-10-17T17:54:17.321Z,98252.38
2022-10-17T17:56:43.690Z,98258.38
2022-10-17T17:59:11.337Z,98257.75
2022-10-17T18:01:39.231Z,98253.56
2022-10-17T18:04:07.077Z,98263.72
2022-10-17T18:06:33.420Z,98260.13
2022-10-17T18:08:59.819Z,98259.91
2022-10-17T18:11:27.120Z,98269.25
2022-10-17T18:14:01.512Z,98268.50
2022-10-17T18:16:28.312Z,98269.22
2022-10-17T18:18:54.941Z,98267.31
2022-10-17T18:21:21.679Z,98264.19
2022-10-17T18:23:48.661Z,98264.41
2022-10-17T18:26:15.079Z,98273.53
2022-10-17T18:31:15.439Z,98272.59
2022-10-17T18:33:44.595Z,98279.19
2022-10-17T18:36:13.349Z,98270.34
2022-10-17T18:38:40.144Z,98281.78
2022-10-17T18:41:19.017Z,98277.38
2022-10-17T18:43:45.979Z,98285.13
2022-10-17T18:46:15.336Z,98278.66
2022-10-17T18:48:42.976Z,98280.81
2022-10-17T18:51:09.344Z,98287.50
2022-10-17T18:53:38.904Z,98288.13
2022-10-17T18:56:05.318Z,98279.19
2022-10-17T18:58:31.710Z,98284.75
2022-10-17T19:01:02.166Z,98282.91
2022-10-17T19:03:28.471Z,98281.78
2022-10-17T19:05:56.717Z,98277.72
2022-10-17T19:08:27.853Z,98282.34
2022-10-17T19:10:54.160Z,98285.47
2022-10-17T19:13:21.594Z,98286.34
2022-10-17T19:15:48.246Z,98283.19
2022-10-17T19:18:14.644Z,98279.91
2022-10-17T19:20:40.976Z,98286.41
2022-10-17T19:23:07.325Z,98287.59
2022-10-17T19:25:33.923Z,98283.25
2022-10-17T19:28:00.487Z,98283.88
2022-10-17T19:30:26.887Z,98281.81
2022-10-17T19:32:53.333Z,98277.72
2022-10-17T19:35:19.720Z,98275.94
2022-10-17T19:37:46.097Z,98282.56
2022-10-17T19:40:12.689Z,98285.81
2022-10-17T19:42:41.433Z,98286.81
2022-10-17T19:45:08.345Z,98294.53
2022-10-17T19:47:34.721Z,98284.84
2022-10-17T19:50:01.054Z,98292.63
2022-10-17T19:52:27.680Z,98295.69
2022-10-17T19:54:54.136Z,98294.75
2022-10-17T19:57:20.508Z,98295.38
2022-10-17T19:59:46.849Z,98294.97
2022-10-17T20:02:13.594Z,98292.75
2022-10-17T20:04:49.633Z,98296.66
2022-10-17T20:07:29.204Z,98287.41
2022-10-17T20:09:55.534Z,98298.22
2022-10-17T20:12:21.855Z,98295.28
2022-10-17T20:14:48.177Z,98295.50
2022-10-17T20:17:14.514Z,98299.91
2022-10-17T20:19:40.822Z,98307.63
2022-10-17T20:22:07.193Z,98305.31
2022-10-17T20:24:33.521Z,98309.72
2022-10-17T20:26:59.877Z,98301.38
2022-10-17T20:29:27.885Z,98304.59
2022-10-17T20:31:54.192Z,98314.75
2022-10-17T20:34:20.630Z,98323.75
2022-10-17T20:36:47.273Z,98315.75
2022-10-17T20:39:16.813Z,98313.34
2022-10-17T20:41:43.517Z,98323.19
2022-10-17T20:44:09.902Z,98317.78
2022-10-17T20:46:37.846Z,98321.53
2022-10-17T20:49:09.782Z,98320.81
2022-10-17T20:51:36.161Z,98319.31
2022-10-17T20:54:03.211Z,98318.09
2022-10-17T20:56:30.844Z,98317.47
2022-10-17T20:59:01.400Z,98321.00
2022-10-17T21:01:28.383Z,98324.72
2022-10-17T21:03:54.908Z,98319.50
2022-10-17T21:06:25.139Z,98317.72
2022-10-17T21:08:55.583Z,98322.00
2022-10-17T21:11:23.320Z,98322.75
2022-10-17T21:13:53.920Z,98321.41
2022-10-17T21:16:20.215Z,98321.25
2022-10-17T21:18:46.576Z,98325.53
2022-10-17T21:21:14.329Z,98326.34
2022-10-17T21:23:41.464Z,98325.47
2022-10-17T21:26:09.285Z,98316.75
2022-10-17T21:28:36.760Z,98319.38
2022-10-17T21:31:22.385Z,98322.22
2022-10-17T21:33:50.243Z,98326.06
2022-10-17T21:36:17.482Z,98327.44
2022-10-17T21:38:47.744Z,98328.22
2022-10-17T21:41:15.076Z,98324.69
2022-10-17T21:43:41.939Z,98332.47
2022-10-17T21:46:12.520Z,98332.41
2022-10-17T21:48:39.235Z,98328.34
2022-10-17T21:51:07.188Z,98333.34
2022-10-17T21:53:33.803Z,98336.72
2022-10-17T21:56:06.018Z,98328.66
2022-10-17T21:58:32.844Z,98327.19
2022-10-17T22:01:03.816Z,98325.44
2022-10-17T22:03:31.670Z,98327.00
2022-10-17T22:06:12.819Z,98330.00
2022-10-17T22:08:45.526Z,98325.16
2022-10-17T22:11:13.457Z,98324.41
2022-10-17T22:13:40.081Z,98327.09
2022-10-17T22:16:08.216Z,98320.97
2022-10-17T22:18:34.898Z,98322.47
2022-10-17T22:21:02.409Z,98320.88
2022-10-17T22:23:28.926Z,98318.25
2022-10-17T22:25:56.205Z,98318.41
2022-10-17T22:28:22.775Z,98320.03
2022-10-17T22:30:49.192Z,98324.41
2022-10-17T22:33:15.582Z,98323.28
2022-10-17T22:35:45.351Z,98328.06
2022-10-17T22:38:12.358Z,98319.94
2022-10-17T22:40:38.677Z,98319.47
2022-10-17T22:43:05.136Z,98322.22
2022-10-17T22:45:31.455Z,98319.84
2022-10-17T22:47:57.909Z,98322.22
2022-10-17T22:50:24.310Z,98317.47
2022-10-17T22:52:53.131Z,98323.78
2022-10-17T22:55:21.901Z,98318.34
2022-10-17T22:57:48.308Z,98324.41
2022-10-17T23:00:15.078Z,98321.41
2022-10-17T23:02:41.425Z,98321.72
2022-10-17T23:05:07.928Z,98310.59
2022-10-17T23:07:34.234Z,98313.59
2022-10-17T23:10:00.555Z,98309.97
2022-10-17T23:12:26.897Z,98312.38
2022-10-17T23:14:53.192Z,98308.56
2022-10-17T23:17:19.482Z,98300.63
2022-10-17T23:19:48.284Z,98302.22
2022-10-17T23:22:14.601Z,98297.56
2022-10-17T23:24:43.341Z,98303.16
2022-10-17T23:27:09.632Z,98284.31
2022-10-17T23:29:35.939Z,98280.03
2022-10-17T23:32:02.370Z,98276.13
2022-10-17T23:34:29.221Z,98288.44
2022-10-17T23:36:55.540Z,98281.72
2022-10-17T23:39:21.943Z,98292.53
2022-10-17T23:41:48.246Z,98292.41
2022-10-17T23:44:14.680Z,98295.41
2022-10-17T23:46:40.996Z,98293.81
2022-10-17T23:49:07.283Z,98294.03
2022-10-17T23:51:33.638Z,98300.19
2022-10-17T23:53:59.948Z,98301.84
2022-10-17T23:56:26.294Z,98296.06
2022-10-17T23:58:52.621Z,98303.06
